• Join FlightAware (Why Join?)
  • Login
  • US Flag 
12:14PM EDT


 

Airport Tracker/Info


-or-


 

Live Flight TrackerFlight Track Log ✈ VOZ1484 ✈ 13-Jul-2014 ✈ YBRM / BME - YPPH / PER

Flight Track Log - Related Links

Times and Time Zones

All times are in EDT time to prevent confusion due to time zone crossing. See the VOZ1484 flight status page for this flight to view local times or setup timezone preferences in your user account.

Time Position Orientation Groundspeed Altitude Reporting Facility
EDT Latitude Longitude Course Direction KTS MPH feet Rate Location/Type
01:46AM -17.9462 122.2180 287° West 157 181 300  Level FlightAware ADS-B (YBRM / BME)
01:46AM -18.0012 122.1930 13° North 16,500 2,760 Climbing Aus ATC (Calculated)
01:46AM -17.9434 122.2069 278° West 157 181 1,000 -61,200 Descending FlightAware ADS-B (YBRM / BME)
01:47AM -17.9433 122.2032 265° West 158 182 1,200 1,980 Climbing FlightAware ADS-B (YBRM / BME)
01:47AM -17.9440 122.2003 252° West 159 183 1,300 1,800 Climbing FlightAware ADS-B (YBRM / BME)
01:47AM -17.9475 122.1945 225° Southwest 161 185 1,600 2,280 Climbing FlightAware ADS-B (YBRM / BME)
01:47AM -17.9502 122.1924 213° Southwest 165 190 1,800 1,980 Climbing FlightAware ADS-B (YBRM / BME)
01:47AM -17.9530 122.1909 205° Southwest 168 193 1,900 720 Climbing FlightAware ADS-B (YBRM / BME)
01:47AM -17.9562 122.1897 198° South 173 199 1,900 720 Level FlightAware ADS-B (YBRM / BME)
01:47AM -17.9596 122.1888 193° South 180 207 2,000 840 Climbing FlightAware ADS-B (YBRM / BME)
01:47AM -18.0529 122.1582 20° North 16,500 780 Climbing Aus ATC (Calculated)
01:47AM -17.9802 122.1854 188° South 209 241 2,300 -37,380 Descending FlightAware ADS-B (YBRM / BME)
01:48AM -17.9929 122.1837 188° South 214 246 2,800 2,100 Climbing FlightAware ADS-B (YBRM / BME)
01:48AM -18.0080 122.1817 188° South 229 264 3,300 2,040 Climbing FlightAware ADS-B (YBRM / BME)
01:48AM -18.0273 122.1779 200° South 252 290 3,900 1,860 Climbing FlightAware ADS-B (YBRM / BME)
01:48AM -18.0400 122.1711 211° Southwest 267 307 4,200 2,520 Climbing FlightAware ADS-B (YBRM / BME)
01:49AM -18.0570 122.1595 215° Southwest 269 310 5,100 3,420 Climbing FlightAware ADS-B (YBRM / BME)
01:49AM -18.0742 122.1475 213° Southwest 268 308 6,100 3,720 Climbing FlightAware ADS-B (YBRM / BME)
01:49AM -18.0866 122.1390 214° Southwest 265 305 6,900 3,600 Climbing FlightAware ADS-B (YBRM / BME)
01:49AM -18.1545 122.0925 33° Northeast 16,500 3,360 Climbing Aus ATC (Calculated)
01:49AM -18.1031 122.1276 214° Southwest 266 306 7,800 -18,480 Descending FlightAware ADS-B (YBRM / BME)
01:50AM -18.1184 122.1171 214° Southwest 272 313 8,500 2,880 Climbing FlightAware ADS-B (YBRM / BME)
01:50AM -18.1365 122.1048 214° Southwest 278 320 9,300 2,580 Climbing FlightAware ADS-B (YBRM / BME)
01:50AM -18.1490 122.0961 214° Southwest 285 328 9,800 1,800 Climbing FlightAware ADS-B (YBRM / BME)
01:50AM -18.2065 122.0567 33° Northeast 16,500 1,560 Climbing Aus ATC (Calculated)
01:51AM -18.2593 122.0190 34° Northeast 16,500 -16,860 Level Aus ATC (Calculated)
01:51AM -18.1851 122.0712 214° Southwest 311 358 10,600 -8,340 Descending FlightAware ADS-B (YBRM / BME)
01:51AM -18.2227 122.0452 214° Southwest 313 360 11,800 2,640 Climbing FlightAware ADS-B (YBRM / BME)
01:52AM -18.2562 122.0221 214° Southwest 310 357 13,200 2,700 Climbing FlightAware ADS-B (YBRM / BME)
01:52AM -18.2954 121.9952 213° Southwest 314 361 14,500 2,520 Climbing FlightAware ADS-B (YBRM / BME)
01:52AM -18.3625 121.9493 33° Northeast 16,500 2,640 Climbing Aus ATC (Calculated)
01:53AM -18.3287 121.9724 214° Southwest 313 360 15,700 420 Descending FlightAware ADS-B (YBRM / BME)
01:53AM -18.4534 121.9120 22° Northeast 36,000 2,220 Climbing Aus ATC (Calculated)
01:53AM -18.3696 121.9472 207° Southwest 320 368 16,900 -31,620 Descending FlightAware ADS-B (YBRM / BME)
01:54AM -18.4146 121.9281 202° Southwest 327 376 18,100 2,040 Climbing FlightAware ADS-B (YBRM / BME)
01:54AM -18.4534 121.9120 200° South 36,000 1,860 Climbing Aus ATC (Calculated)
01:54AM -18.4554 121.9113 202° Southwest 337 388 19,000 -17,280 Descending FlightAware ADS-B (YBRM / BME)
01:55AM -18.4971 121.8941 202° Southwest 343 395 19,900 1,920 Climbing FlightAware ADS-B (YBRM / BME)
01:55AM -18.5411 121.8761 202° Southwest 348 400 20,900 2,460 Climbing FlightAware ADS-B (YBRM / BME)
01:56AM -18.5927 121.8548 202° Southwest 333 383 22,600 2,700 Climbing FlightAware ADS-B (YBRM / BME)
01:56AM -18.7262 121.8000 21° North 36,000 2,400 Climbing Aus ATC (Calculated)
01:56AM -18.6324 121.8386 202° Southwest 330 380 23,700 -19,680 Descending FlightAware ADS-B (YBRM / BME)
01:57AM -18.6732 121.8217 202° Southwest 341 392 24,200 1,200 Climbing FlightAware ADS-B (YBRM / BME)
01:57AM -18.7197 121.8027 202° Southwest 348 400 24,900 1,500 Climbing FlightAware ADS-B (YBRM / BME)
01:57AM -18.8171 121.7625 21° North 36,000 1,680 Climbing Aus ATC (Calculated)
01:58AM -18.7659 121.7835 202° Southwest 343 395 25,800 -10,260 Descending FlightAware ADS-B (YBRM / BME)
01:58AM -18.8070 121.7665 202° Southwest 342 394 26,600 1,500 Climbing FlightAware ADS-B (YBRM / BME)
01:59AM -18.8532 121.7474 202° Southwest 344 396 27,300 1,320 Climbing FlightAware ADS-B (YBRM / BME)
01:59AM -18.9006 121.7279 202° Southwest 347 399 28,000 1,200 Climbing FlightAware ADS-B (YBRM / BME)
01:59AM -18.9989 121.6875 21° North 36,000 1,020 Climbing Aus ATC (Calculated)
02:00AM -18.9380 121.7124 202° Southwest 348 400 28,500 -7,980 Descending FlightAware ADS-B (YBRM / BME)
02:00AM -18.9943 121.6890 202° Southwest 352 405 29,100 1,080 Climbing FlightAware ADS-B (YBRM / BME)
02:01AM -19.0406 121.6698 202° Southwest 353 406 29,700 1,020 Climbing FlightAware ADS-B (YBRM / BME)
02:01AM -19.1806 121.6124 21° North 36,000 900 Climbing Aus ATC (Calculated)
02:01AM -19.0908 121.6490 202° Southwest 357 411 30,200 -6,240 Descending FlightAware ADS-B (YBRM / BME)
02:02AM -19.1157 121.6387 202° Southwest 357 411 30,400 900 Climbing FlightAware ADS-B (YBRM / BME)
02:02AM -19.2715 121.5747 21° North 36,000 2,100 Climbing Aus ATC (Calculated)
02:03AM -19.2101 121.5996 202° Southwest 357 411 31,500  Descending FlightAware ADS-B (YBRM / BME)
02:23AM -21.1132 120.8062 202° Southwest 348 400 36,100 180 Climbing Aus ATC (RADAR)
02:24AM -21.1861 120.7697 205° Southwest 344 396 36,100  Level Aus ATC (RADAR)
02:24AM -21.2255 120.7538 201° Southwest 349 402 36,100  Level Aus ATC (RADAR)
02:25AM -21.2798 120.7309 201° Southwest 352 405 36,100  Level Aus ATC (RADAR)
02:26AM -21.3805 120.6887 201° Southwest 355 409 36,100  Level Aus ATC (RADAR)
02:26AM -21.4040 120.6791 201° Southwest 356 410 36,100  Level Aus ATC (RADAR)
02:27AM -21.4575 120.6557 202° Southwest 355 409 36,100  Level Aus ATC (RADAR)
02:27AM -21.5198 120.6302 201° Southwest 356 410 36,100  Level Aus ATC (RADAR)
02:28AM -21.5572 120.6134 203° Southwest 353 406 36,100  Level Aus ATC (RADAR)
02:28AM -21.6188 120.5880 201° Southwest 354 407 36,100  Level Aus ATC (RADAR)
02:29AM -21.6803 120.5622 201° Southwest 354 407 36,100  Level Aus ATC (RADAR)
02:30AM -21.7336 120.5391 202° Southwest 353 406 36,100  Level Aus ATC (RADAR)
02:30AM -21.8097 120.5063 202° Southwest 353 406 36,100  Level Aus ATC (RADAR)
02:31AM -21.8619 120.4828 203° Southwest 349 402 36,100  Level Aus ATC (RADAR)
02:32AM -21.9144 120.4597 202° Southwest 348 400 36,100  Level Aus ATC (RADAR)
02:32AM -21.9901 120.4276 202° Southwest 350 403 36,100  Level Aus ATC (RADAR)
02:33AM -22.0278 120.4112 202° Southwest 349 402 36,100  Level Aus ATC (RADAR)
02:33AM -22.0803 120.3885 202° Southwest 348 400 36,100  Level Aus ATC (RADAR)
02:34AM -22.1403 120.3624 202° Southwest 347 399 36,100  Level Aus ATC (RADAR)
02:35AM -22.1930 120.3397 202° Southwest 348 400 36,100  Level Aus ATC (RADAR)
02:35AM -22.2676 120.3072 202° Southwest 347 399 36,100  Level Aus ATC (RADAR)
02:36AM -22.3126 120.2876 202° Southwest 347 399 36,100  Level Aus ATC (RADAR)
02:36AM -22.3505 120.2714 202° Southwest 349 402 36,100  Level Aus ATC (RADAR)
02:37AM -22.4029 120.2484 202° Southwest 348 400 36,100  Level Aus ATC (RADAR)
02:38AM -22.4780 120.2158 202° Southwest 347 399 36,100  Level Aus ATC (RADAR)
02:38AM -22.5308 120.1932 202° Southwest 348 400 36,100  Level Aus ATC (RADAR)
02:39AM -22.6055 120.1605 202° Southwest 347 399 36,100  Level Aus ATC (RADAR)
02:40AM -22.6432 120.1443 202° Southwest 348 400 36,100  Level Aus ATC (RADAR)
02:41AM -22.7322 120.1050 202° Southwest 345 397 36,100  Level Aus ATC (RADAR)
02:41AM -22.7770 120.0854 202° Southwest 346 398 36,100  Level Aus ATC (RADAR)
02:42AM -22.8151 120.0692 201° Southwest 348 400 36,100  Level Aus ATC (RADAR)
02:42AM -22.8679 120.0463 202° Southwest 349 402 36,100  Level Aus ATC (RADAR)
02:43AM -22.9367 120.0170 201° Southwest 352 405 36,100  Level Aus ATC (RADAR)
02:43AM -22.9886 119.9938 202° Southwest 348 400 36,100  Level Aus ATC (RADAR)
02:44AM -23.0339 119.9740 202° Southwest 349 402 36,100  Level Aus ATC (RADAR)
02:45AM -23.1011 119.9443 202° Southwest 348 400 36,100  Level Aus ATC (RADAR)
02:45AM -23.1682 119.9145 202° Southwest 347 399 36,100  Level Aus ATC (RADAR)
02:46AM -23.1994 119.9013 201° Southwest 352 405 36,100  Level Aus ATC (RADAR)
02:47AM -23.2896 119.8615 202° Southwest 351 404 36,100  Level Aus ATC (RADAR)
02:47AM -23.3417 119.8382 202° Southwest 349 402 36,100  Level Aus ATC (RADAR)
02:49AM -23.4712 119.7824 202° Southwest 353 406 36,100  Level Aus ATC (RADAR)
02:49AM -23.4997 119.7701 202° Southwest 344 396 36,100  Level Aus ATC (RADAR)
02:50AM -23.5984 119.7288 201° Southwest 346 398 36,100  Level Aus ATC (RADAR)
02:51AM -23.6898 119.6907 201° Southwest 344 396 36,100  Level Aus ATC (RADAR)
02:52AM -23.7598 119.6615 201° Southwest 350 403 36,100  Level Aus ATC (RADAR)
02:52AM -23.7804 119.6526 201° Southwest 341 392 36,100  Level Aus ATC (RADAR)
02:53AM -23.8355 119.6298 201° Southwest 352 405 36,100  Level Aus ATC (RADAR)
02:54AM -23.9192 119.5945 201° Southwest 351 404 36,100  Level Aus ATC (RADAR)
02:54AM -23.9718 119.5725 201° Southwest 349 402 36,100  Level Aus ATC (RADAR)
02:55AM -24.0401 119.5437 201° Southwest 351 404 36,100  Level Aus ATC (RADAR)
02:56AM -24.0939 119.5210 201° Southwest 354 407 36,100  Level Aus ATC (RADAR)
02:57AM -24.1760 119.4865 201° Southwest 346 398 36,100  Level Aus ATC (RADAR)
02:57AM -24.2160 119.4692 202° Southwest 357 411 36,100  Level Aus ATC (RADAR)
02:58AM -24.2671 119.4480 201° Southwest 346 398 36,100  Level Aus ATC (RADAR)
02:58AM -24.3220 119.4243 201° Southwest 357 411 36,100  Level Aus ATC (RADAR)
02:59AM -24.3730 119.4034 200° South 344 396 36,100  Level Aus ATC (RADAR)
03:00AM -24.4492 119.3710 201° Southwest 349 402 36,100  Level Aus ATC (RADAR)
03:00AM -24.4866 119.3554 201° Southwest 346 398 36,100  Level Aus ATC (RADAR)
03:01AM -24.5411 119.3316 202° Southwest 355 409 36,100  Level Aus ATC (RADAR)
03:02AM -24.6450 119.2883 201° Southwest 344 396 36,100  Level Aus ATC (RADAR)
03:02AM -24.6757 119.2748 202° Southwest 349 402 36,100  Level Aus ATC (RADAR)
03:03AM -24.7287 119.2519 201° Southwest 350 403 36,100  Level Aus ATC (RADAR)
03:03AM -24.8026 119.2213 201° Southwest 342 394 36,100  Level Aus ATC (RADAR)
03:04AM -24.8561 119.1979 202° Southwest 349 402 36,100  Level Aus ATC (RADAR)
03:05AM -24.9162 119.1720 201° Southwest 348 400 36,100  Level Aus ATC (RADAR)
03:05AM -24.9532 119.1565 201° Southwest 347 399 36,100  Level Aus ATC (RADAR)
03:06AM -25.0125 119.1316 201° Southwest 344 396 36,100  Level Aus ATC (RADAR)
03:07AM -25.0945 119.0964 201° Southwest 345 397 36,100  Level Aus ATC (RADAR)
03:07AM -25.1242 119.0838 201° Southwest 344 396 36,100  Level Aus ATC (RADAR)
03:08AM -25.1767 119.0605 202° Southwest 347 399 36,100  Level Aus ATC (RADAR)
03:08AM -25.2361 119.0353 201° Southwest 345 397 36,100  Level Aus ATC (RADAR)
03:09AM -25.2887 119.0119 202° Southwest 348 400 36,100  Level Aus ATC (RADAR)
03:09AM -25.3406 118.9900 201° Southwest 345 397 36,100  Level Aus ATC (RADAR)
03:10AM -25.3999 118.9643 201° Southwest 346 398 36,100  Level Aus ATC (RADAR)
03:11AM -25.4526 118.9409 202° Southwest 348 400 36,100  Level Aus ATC (RADAR)
03:12AM -25.5490 118.8996 201° Southwest 346 398 36,100  Level Aus ATC (RADAR)
03:12AM -25.5862 118.8834 201° Southwest 345 397 36,100  Level Aus ATC (RADAR)
03:13AM -25.6459 118.8574 201° Southwest 344 396 36,100  Level Aus ATC (RADAR)
03:14AM -25.7127 118.8287 201° Southwest 343 395 36,100  Level Aus ATC (RADAR)
03:14AM -25.7645 118.8065 201° Southwest 342 394 36,100  Level Aus ATC (RADAR)
03:15AM -25.8316 118.7775 201° Southwest 344 396 36,100  Level Aus ATC (RADAR)
03:15AM -25.8761 118.7581 201° Southwest 343 395 36,100  Level Aus ATC (RADAR)
03:16AM -25.9287 118.7340 202° Southwest 346 398 36,100  Level Aus ATC (RADAR)
03:17AM -26.0037 118.6999 202° Southwest 350 403 36,100  Level Aus ATC (RADAR)
03:17AM -26.0405 118.6847 200° South 346 398 36,100  Level Aus ATC (RADAR)
03:18AM -26.0919 118.6642 200° South 340 391 36,100  Level Aus ATC (RADAR)
03:19AM -26.1667 118.6301 202° Southwest 347 399 36,100  Level Aus ATC (RADAR)
03:19AM -26.2192 118.6063 202° Southwest 348 400 36,100  Level Aus ATC (RADAR)
03:20AM -26.2854 118.5811 199° South 339 390 36,100  Level Aus ATC (RADAR)
03:20AM -26.3234 118.5620 204° Southwest 346 398 36,100  Level Aus ATC (RADAR)
03:21AM -26.3610 118.5446 203° Southwest 351 404 36,100  Level Aus ATC (RADAR)
03:23AM -26.5136 118.4908 198° South 309 356 36,100  Level Aus ATC (RADAR)
03:40AM -28.0590 117.7756 202° Southwest 347 399 36,100  Level Aus ATC (RADAR)
03:40AM -28.1053 117.7581 198° South 350 403 36,100  Level Aus ATC (RADAR)
03:41AM -28.1654 117.7312 202° Southwest 350 403 36,100  Level Aus ATC (RADAR)
03:42AM -28.2178 117.7074 202° Southwest 349 402 36,100  Level Aus ATC (RADAR)
03:42AM -28.2970 117.6690 203° Southwest 340 391 36,100  Level Aus ATC (RADAR)
03:43AM -28.3339 117.6515 203° Southwest 344 396 36,100  Level Aus ATC (RADAR)
03:43AM -28.3855 117.6258 204° Southwest 348 400 36,100  Level Aus ATC (RADAR)
03:44AM -28.4530 117.5960 201° Southwest 350 403 36,100  Level Aus ATC (RADAR)
03:45AM -28.5135 117.5687 202° Southwest 348 400 36,100  Level Aus ATC (RADAR)
03:46AM -28.5742 117.5425 201° Southwest 349 402 36,100 -120 Level Aus ATC (RADAR)
03:46AM -28.6145 117.5385 202° Southwest 351 404 36,000  Descending FlightAware ADS-B (YPPH / PER)
03:46AM -28.6122 117.5256 201° Southwest 351 404 36,100  Climbing Aus ATC (RADAR)
03:46AM -28.6623 117.5165 202° Southwest 352 405 36,000 -120 Descending FlightAware ADS-B (YPPH / PER)
03:47AM -28.7078 117.4956 202° Southwest 352 405 36,000  Level FlightAware ADS-B (YPPH / PER)
03:47AM -28.7529 117.4749 202° Southwest 351 404 36,000  Level FlightAware ADS-B (YPPH / PER)
03:48AM -28.8131 117.4471 202° Southwest 351 404 36,000  Level FlightAware ADS-B (YPPH / PER)
03:49AM -28.8602 117.4255 202° Southwest 351 404 36,000  Level FlightAware ADS-B (YPPH / PER)
03:49AM -28.9183 117.3987 202° Southwest 351 404 36,000  Level FlightAware ADS-B (YPPH / PER)
03:50AM -28.9638 117.3777 202° Southwest 351 404 36,000  Level FlightAware ADS-B (YPPH / PER)
03:50AM -29.0233 117.3503 202° Southwest 351 404 36,000  Level FlightAware ADS-B (YPPH / PER)
03:51AM -29.0688 117.3292 202° Southwest 351 404 36,000  Level FlightAware ADS-B (YPPH / PER)
03:51AM -29.1134 117.3086 202° Southwest 350 403 36,000  Level FlightAware ADS-B (YPPH / PER)
03:52AM -29.1593 117.2874 202° Southwest 350 403 36,000  Level FlightAware ADS-B (YPPH / PER)
03:52AM -29.2042 117.2665 202° Southwest 350 403 36,000 60 Level FlightAware ADS-B (YPPH / PER)
03:53AM -29.2520 117.2339 202° Southwest 349 402 36,100  Climbing Aus ATC (RADAR)
03:53AM -29.2641 117.2387 202° Southwest 350 403 36,000 -180 Descending FlightAware ADS-B (YPPH / PER)
03:54AM -29.3093 117.2177 202° Southwest 350 403 36,000  Level FlightAware ADS-B (YPPH / PER)
03:54AM -29.3556 117.1963 202° Southwest 350 403 36,000  Level FlightAware ADS-B (YPPH / PER)
03:55AM -29.4010 117.1753 202° Southwest 351 404 36,000  Level FlightAware ADS-B (YPPH / PER)
03:55AM -29.4464 117.1542 202° Southwest 350 403 36,000  Level FlightAware ADS-B (YPPH / PER)
03:56AM -29.4903 117.1338 202° Southwest 335 386 36,000  Level FlightAware ADS-B (YPPH / PER)
03:56AM -29.5332 117.1138 202° Southwest 331 381 36,000  Level FlightAware ADS-B (YPPH / PER)
03:57AM -29.5762 117.0936 203° Southwest 331 381 36,000  Level FlightAware ADS-B (YPPH / PER)
03:57AM -29.6185 117.0734 203° Southwest 331 381 36,000  Level FlightAware ADS-B (YPPH / PER)
03:58AM -29.6746 117.0469 202° Southwest 332 382 36,000 60 Level FlightAware ADS-B (YPPH / PER)
03:58AM -29.7117 117.0225 202° Southwest 330 380 36,100  Climbing Aus ATC (RADAR)
03:58AM -29.7203 117.0256 202° Southwest 332 382 36,000 -240 Descending FlightAware ADS-B (YPPH / PER)
03:59AM -29.7630 117.0056 202° Southwest 333 383 36,000  Level FlightAware ADS-B (YPPH / PER)
03:59AM -29.8060 116.9853 203° Southwest 330 380 36,000  Level FlightAware ADS-B (YPPH / PER)
04:00AM -29.8500 116.9647 202° Southwest 345 397 36,000  Level FlightAware ADS-B (YPPH / PER)
04:00AM -29.8943 116.9438 203° Southwest 345 397 36,000  Level FlightAware ADS-B (YPPH / PER)
04:01AM -29.9393 116.9225 202° Southwest 352 405 36,000  Level FlightAware ADS-B (YPPH / PER)
04:01AM -29.9846 116.9015 202° Southwest 346 398 36,000  Level FlightAware ADS-B (YPPH / PER)
04:02AM -30.0299 116.8804 203° Southwest 346 398 36,000  Level FlightAware ADS-B (YPPH / PER)
04:02AM -30.0781 116.8576 202° Southwest 353 406 36,000  Level FlightAware ADS-B (YPPH / PER)
04:03AM -30.1239 116.8359 203° Southwest 346 398 36,000  Level FlightAware ADS-B (YPPH / PER)
04:03AM -30.1695 116.8144 203° Southwest 346 398 36,000  Level FlightAware ADS-B (YPPH / PER)
04:04AM -30.2148 116.7929 203° Southwest 347 399 36,000  Level FlightAware ADS-B (YPPH / PER)
04:04AM -30.2602 116.7714 203° Southwest 347 399 36,000  Level FlightAware ADS-B (YPPH / PER)
04:05AM -30.3205 116.7428 203° Southwest 347 399 36,000  Level FlightAware ADS-B (YPPH / PER)
04:06AM -30.3817 116.7138 203° Southwest 346 398 36,000  Level FlightAware ADS-B (YPPH / PER)
04:06AM -30.4270 116.6922 203° Southwest 347 399 36,000  Level FlightAware ADS-B (YPPH / PER)
04:07AM -30.4753 116.6692 202° Southwest 349 402 36,000 -120 Level FlightAware ADS-B (YPPH / PER)
04:07AM -30.5193 116.6482 203° Southwest 334 384 35,900 -1,140 Descending FlightAware ADS-B (YPPH / PER)
04:08AM -30.5796 116.6225 199° South 341 392 34,700 -1,800 Descending FlightAware ADS-B (YPPH / PER)
04:08AM -30.6253 116.6045 200° South 343 395 33,800 -1,920 Descending FlightAware ADS-B (YPPH / PER)
04:09AM -30.6863 116.5806 199° South 339 390 32,500 -1,920 Descending FlightAware ADS-B (YPPH / PER)
04:10AM -30.7320 116.5627 199° South 338 389 31,600 -1,800 Descending FlightAware ADS-B (YPPH / PER)
04:10AM -30.7770 116.5451 199° South 325 374 30,700 -1,800 Descending FlightAware ADS-B (YPPH / PER)
04:11AM -30.8211 116.5278 199° South 328 377 29,800 -1,800 Descending FlightAware ADS-B (YPPH / PER)
04:11AM -30.8658 116.5104 199° South 343 395 28,900 -1,800 Descending FlightAware ADS-B (YPPH / PER)
04:12AM -30.9265 116.4868 199° South 339 390 27,700 -1,860 Descending FlightAware ADS-B (YPPH / PER)
04:12AM -30.9571 116.4764 190° South 344 396 27,100 -1,860 Descending FlightAware ADS-B (YPPH / PER)
04:12AM -30.9906 116.4748 179° South 356 410 26,500 -1,620 Descending FlightAware ADS-B (YPPH / PER)
04:13AM -31.0447 116.4769 178° South 355 409 25,700 -1,560 Descending FlightAware ADS-B (YPPH / PER)
04:13AM -31.0952 116.4786 178° South 351 404 24,900 -1,500 Descending FlightAware ADS-B (YPPH / PER)
04:14AM -31.1451 116.4802 179° South 355 409 24,200 -1,500 Descending FlightAware ADS-B (YPPH / PER)
04:15AM -31.2098 116.4815 180° South 341 392 23,200 -900 Descending FlightAware ADS-B (YPPH / PER)
04:15AM -31.2741 116.4819 180° South 338 389 23,000 -180 Descending FlightAware ADS-B (YPPH / PER)
04:16AM -31.3221 116.4824 180° South 338 389 23,000 -420 Level FlightAware ADS-B (YPPH / PER)
04:16AM -31.3707 116.4831 179° South 340 391 22,600 -1,680 Descending FlightAware ADS-B (YPPH / PER)
04:17AM -31.4191 116.4842 180° South 341 392 21,300 -2,700 Descending FlightAware ADS-B (YPPH / PER)
04:17AM -31.4334 116.4819 195° South 336 387 20,800 -1,980 Descending FlightAware ADS-B (YPPH / PER)
04:17AM -31.4775 116.4600 205° Southwest 335 386 20,000 -1,920 Descending FlightAware ADS-B (YPPH / PER)
04:18AM -31.5208 116.4376 204° Southwest 332 382 18,900 -2,640 Descending FlightAware ADS-B (YPPH / PER)
04:18AM -31.5620 116.4109 215° Southwest 337 388 17,400 -3,180 Descending FlightAware ADS-B (YPPH / PER)
04:19AM -31.6166 116.3675 215° Southwest 359 413 15,200 -2,940 Descending FlightAware ADS-B (YPPH / PER)
04:20AM -31.6572 116.3341 216° Southwest 353 406 14,000 -2,220 Descending FlightAware ADS-B (YPPH / PER)
04:20AM -31.6795 116.3106 227° Southwest 333 383 13,400 -2,100 Descending FlightAware ADS-B (YPPH / PER)
04:20AM -31.7100 116.2640 236° Southwest 315 362 12,200 -2,400 Descending FlightAware ADS-B (YPPH / PER)
04:21AM -31.7352 116.2218 235° Southwest 318 366 10,900 -1,800 Descending FlightAware ADS-B (YPPH / PER)
04:21AM -31.7599 116.1807 236° Southwest 290 334 10,400 -1,140 Descending FlightAware ADS-B (YPPH / PER)
04:22AM -31.7747 116.1558 235° Southwest 285 328 10,000 -1,380 Descending FlightAware ADS-B (YPPH / PER)
04:22AM -31.7866 116.1359 235° Southwest 281 323 9,600 -1,560 Descending FlightAware ADS-B (YPPH / PER)
04:22AM -31.7972 116.1178 237° Southwest 275 316 9,200 -1,860 Descending FlightAware ADS-B (YPPH / PER)
04:22AM -31.8031 116.1079 235° Southwest 280 322 8,900 -2,340 Descending FlightAware ADS-B (YPPH / PER)
04:23AM -31.8082 116.1012 218° Southwest 287 330 8,700 -2,340 Descending FlightAware ADS-B (YPPH / PER)
04:23AM -31.8253 116.0878 205° Southwest 285 328 8,100 -2,100 Descending FlightAware ADS-B (YPPH / PER)
04:23AM -31.8301 116.0854 193° South 294 338 8,000 -1,440 Descending FlightAware ADS-B (YPPH / PER)
04:23AM -31.8421 116.0817 181° South 287 330 7,800 -1,680 Descending FlightAware ADS-B (YPPH / PER)
04:23AM -31.8743 116.0848 160° South 297 342 7,000 -1,740 Descending FlightAware ADS-B (YPJT / JAD)
04:24AM -31.8961 116.0952 157° South 297 342 6,600 -1,800 Descending FlightAware ADS-B (YPJT / JAD)
04:24AM -31.9160 116.1054 156° South 298 343 6,100 -1,440 Descending FlightAware ADS-B (YPJT / JAD)
04:24AM -31.9333 116.1144 156° South 291 335 5,900 -840 Descending FlightAware ADS-B (YPJT / JAD)
04:24AM -31.9524 116.1240 159° South 278 320 5,700 -1,080 Descending FlightAware ADS-B (YPJT / JAD)
04:25AM -31.9656 116.1276 180° South 270 311 5,400 -1,620 Descending FlightAware ADS-B (YPJT / JAD)
04:25AM -31.9887 116.1246 197° South 262 302 4,900 -1,320 Descending FlightAware ADS-B (YPJT / JAD)
04:25AM -32.0028 116.1184 202° Southwest 252 290 4,700 -600 Descending FlightAware ADS-B (YPJT / JAD)
04:25AM -32.0212 116.1097 202° Southwest 233 268 4,600 -420 Descending FlightAware ADS-B (YPJT / JAD)
04:26AM -32.0358 116.1030 201° Southwest 217 250 4,500 -600 Descending FlightAware ADS-B (YPJT / JAD)
04:26AM -32.0500 116.0963 203° Southwest 207 238 4,300 -1,020 Descending FlightAware ADS-B (YPJT / JAD)
04:26AM -32.0641 116.0791 244° Southwest 194 223 3,900 -1,140 Descending FlightAware ADS-B (YPPH / PER)
04:27AM -32.0664 116.0690 265° West 189 217 3,700 -1,320 Descending FlightAware ADS-B (YPPH / PER)
04:27AM -32.0661 116.0580 282° West 184 212 3,400 -1,140 Descending FlightAware ADS-B (YPJT / JAD)
04:27AM -32.0643 116.0485 284° West 183 211 3,300 -840 Descending FlightAware ADS-B (YPJT / JAD)
04:27AM -32.0597 116.0285 286° West 184 212 3,000 -840 Descending FlightAware ADS-B (YPJT / JAD)
04:27AM -32.0573 116.0186 286° West 181 208 2,800 -840 Descending FlightAware ADS-B (YPJT / JAD)
04:28AM -32.0528 116.0000 286° West 175 201 2,600 -900 Descending FlightAware ADS-B (YPJT / JAD)
04:28AM -32.0485 115.9823 287° West 172 198 2,300 -960 Descending FlightAware ADS-B (YPPH / PER)
04:28AM -32.0473 115.9767 282° West 162 186 2,200 -900 Descending FlightAware ADS-B (YPPH / PER)
04:28AM -32.0431 115.9604 290° West 157 181 1,900 -840 Descending FlightAware ADS-B (YPJT / JAD)
04:29AM -32.0372 115.9507 325° Northwest 141 162 1,700 -960 Descending FlightAware ADS-B (YPJT / JAD)
04:29AM -32.0307 115.9475 342° North 134 154 1,500 -1,080 Descending FlightAware ADS-B (YPPH / PER)
04:29AM -32.0197 115.9444 354° North 131 151 1,200 -840 Descending FlightAware ADS-B (YPJT / JAD)
04:29AM -32.0135 115.9444 North 131 151 1,100 -660 Descending FlightAware ADS-B (YPPH / PER)
04:30AM -32.0077 115.9452 12° North 119 137 1,000 -720 Descending FlightAware ADS-B (YPPH / PER)
04:30AM -31.9988 115.9481 16° North 121 139 800 -600 Descending FlightAware ADS-B (YPPH / PER)
04:30AM -31.9856 115.9519 14° North 123 142 600 -720 Descending FlightAware ADS-B (YPJT / JAD)
04:31AM -31.9694 115.9566 13° North 123 142 200 -840 Descending FlightAware ADS-B (YPJT / JAD)